Pertusola — IBER — position and weather

sailwx.info

Track history (hours):
 
Tides and Currents Weather Stations Pressure Air Temp Water Temp Dewpoint Dewpoint Depression Visibility Wind Speed Wind Dir Waves Ship Positions

Pertusola

Last reported at 2014-Oct-31 11:03 UTC. Time now 2014-Oct-31 12:57 UTC.
Position N 66°37' E 013°05'.

Length 145 m; draft 9 m.

Type: Ship (hazmat cat A). MMSI: 247399000.

Date/timePositionNaut miles runAvg speedWind from/ knotsBaromVisibWave heightAir tempDewpointWater temp
2014-Oct-31 11:03N 66°37' E 013°05'611.5
2014-Oct-31 10:32N 66°32' E 012°57'1212.5
2014-Oct-31 09:33N 66°20' E 012°51'1212.4
2014-Oct-31 08:33N 66°16' E 012°23'  
2014-Oct-28 12:33N 55°26' E 005°54'2712.7
2014-Oct-28 10:27N 55°02' E 005°36'7612.7
2014-Oct-28 04:29N 54°03' E 004°12'9111.0
2014-Oct-27 20:09N 52°50' E 002°42'812.7
2014-Oct-27 19:30N 52°42' E 002°42'1313.6
2014-Oct-27 18:34N 52°29' E 002°42'1414.2
2014-Oct-27 17:33N 52°14' E 002°42'1414.3
2014-Oct-27 16:33N 52°00' E 002°43'1413.7
2014-Oct-27 15:33N 51°47' E 002°35'1514.6
2014-Oct-27 14:33N 51°36' E 002°20'1414.3
2014-Oct-27 13:33N 51°25' E 002°05'1413.9
2014-Oct-27 12:33N 51°15' E 001°51'1313.3
2014-Oct-27 11:33N 51°05' E 001°37'1212.0
2014-Oct-27 10:33N 50°56' E 001°24'1110.9
2014-Oct-27 09:33N 50°45' E 001°20'1611.4
2014-Oct-27 08:09N 50°34' E 001°02'711.5
2014-Oct-27 07:32N 50°31' E 000°52'1411.8
2014-Oct-27 06:24N 50°27' E 000°32'3411.3
2014-Oct-27 03:25N 50°18' W 000°19'3311.6
2014-Oct-27 00:33N 50°09' W 001°09'1414.2
2014-Oct-26 23:32N 50°05' W 001°31'1515.4
2014-Oct-26 22:33N 50°01' W 001°53'2016.1
2014-Oct-26 21:20N 49°56' W 002°23'2715.0
2014-Oct-26 19:33N 49°47' W 003°02'  
2014-Oct-24 00:33N 38°35' W 009°53'1611.8
2014-Oct-23 23:13N 38°20' W 009°49'811.8
2014-Oct-23 22:33N 38°12' W 009°46'1211.7
2014-Oct-23 21:33N 38°01' W 009°43'1111.5
2014-Oct-23 20:33N 37°49' W 009°40'1111.3
2014-Oct-23 19:34N 37°38' W 009°37'1211.6
2014-Oct-23 18:32N 37°27' W 009°33'1212.0
2014-Oct-23 17:33N 37°16' W 009°30'1212.2
2014-Oct-23 16:34N 37°04' W 009°26'1312.0
2014-Oct-23 15:29N 36°51' W 009°22'1611.9
2014-Oct-23 14:10N 36°41' W 009°08'812.4
2014-Oct-23 13:34N 36°39' W 008°59'5212.4
2014-Oct-23 09:21N 36°24' W 007°56'1012.8
2014-Oct-23 08:33N 36°21' W 007°44'10412.3
2014-Oct-23 00:05N 35°58' W 005°39'611.9
2014-Oct-22 23:33N 35°60' W 005°31'10 9.9
2014-Oct-22 22:29N 36°08' W 005°23'1 0.8
2014-Oct-22 21:32N 36°08' W 005°22'0 0.1
2014-Oct-22 20:14N 36°08' W 005°22'0 0.3
2014-Oct-22 19:32N 36°08' W 005°22'0 0.2
2014-Oct-22 18:32N 36°08' W 005°22'0 0.0
2014-Oct-22 17:32N 36°08' W 005°22'0 0.1
2014-Oct-22 16:26N 36°08' W 005°22'0 0.1
2014-Oct-22 15:32N 36°08' W 005°22'0 0.0
2014-Oct-22 14:29N 36°08' W 005°22'4 4.0
2014-Oct-22 13:33N 36°05' W 005°21'3 3.5
2014-Oct-22 12:33N 36°06' W 005°17'0 0.3
2014-Oct-22 11:31N 36°06' W 005°17'3 3.4
2014-Oct-22 10:30N 36°09' W 005°14'1 1.1
2014-Oct-22 09:33N 36°08' W 005°13'1 1.2
2014-Oct-22 08:33N 36°09' W 005°12'1 0.8
2014-Oct-22 07:33N 36°09' W 005°12'1 1.3
2014-Oct-22 06:33N 36°08' W 005°11'20112.5
2014-Oct-21 14:31N 36°41' W 001°04'1212.3
2014-Oct-21 13:33N 36°44' W 000°50'1212.4
2014-Oct-21 12:33N 36°47' W 000°35'  
Track history (hours):
 
Tides and Currents Weather Stations Pressure Air Temp Water Temp Dewpoint Dewpoint Depression Visibility Wind Speed Wind Dir Waves Ship Positions

Pertusola

Last reported at 2014-Oct-31 11:03 UTC. Time now 2014-Oct-31 12:57 UTC.
Position N 66°37' E 013°05'.

Length 145 m; draft 9 m.

Type: Ship (hazmat cat A). MMSI: 247399000.

Date/timePositionNaut miles runAvg speedWind from/ knotsBaromVisibWave heightAir tempDewpointWater temp
2014-Oct-31 11:03N 66°37' E 013°05'611.5
2014-Oct-31 10:32N 66°32' E 012°57'1212.5
2014-Oct-31 09:33N 66°20' E 012°51'1212.4
2014-Oct-31 08:33N 66°16' E 012°23'  
2014-Oct-28 12:33N 55°26' E 005°54'2712.7
2014-Oct-28 10:27N 55°02' E 005°36'7612.7
2014-Oct-28 04:29N 54°03' E 004°12'9111.0
2014-Oct-27 20:09N 52°50' E 002°42'812.7
2014-Oct-27 19:30N 52°42' E 002°42'1313.6
2014-Oct-27 18:34N 52°29' E 002°42'1414.2
2014-Oct-27 17:33N 52°14' E 002°42'1414.3
2014-Oct-27 16:33N 52°00' E 002°43'1413.7
2014-Oct-27 15:33N 51°47' E 002°35'1514.6
2014-Oct-27 14:33N 51°36' E 002°20'1414.3
2014-Oct-27 13:33N 51°25' E 002°05'1413.9
2014-Oct-27 12:33N 51°15' E 001°51'1313.3
2014-Oct-27 11:33N 51°05' E 001°37'1212.0
2014-Oct-27 10:33N 50°56' E 001°24'1110.9
2014-Oct-27 09:33N 50°45' E 001°20'1611.4
2014-Oct-27 08:09N 50°34' E 001°02'711.5
2014-Oct-27 07:32N 50°31' E 000°52'1411.8
2014-Oct-27 06:24N 50°27' E 000°32'3411.3
2014-Oct-27 03:25N 50°18' W 000°19'3311.6
2014-Oct-27 00:33N 50°09' W 001°09'1414.2
2014-Oct-26 23:32N 50°05' W 001°31'1515.4
2014-Oct-26 22:33N 50°01' W 001°53'2016.1
2014-Oct-26 21:20N 49°56' W 002°23'2715.0
2014-Oct-26 19:33N 49°47' W 003°02'  
2014-Oct-24 00:33N 38°35' W 009°53'1611.8
2014-Oct-23 23:13N 38°20' W 009°49'811.8
2014-Oct-23 22:33N 38°12' W 009°46'1211.7
2014-Oct-23 21:33N 38°01' W 009°43'1111.5
2014-Oct-23 20:33N 37°49' W 009°40'1111.3
2014-Oct-23 19:34N 37°38' W 009°37'1211.6
2014-Oct-23 18:32N 37°27' W 009°33'1212.0
2014-Oct-23 17:33N 37°16' W 009°30'1212.2
2014-Oct-23 16:34N 37°04' W 009°26'1312.0
2014-Oct-23 15:29N 36°51' W 009°22'1611.9
2014-Oct-23 14:10N 36°41' W 009°08'812.4
2014-Oct-23 13:34N 36°39' W 008°59'5212.4
2014-Oct-23 09:21N 36°24' W 007°56'1012.8
2014-Oct-23 08:33N 36°21' W 007°44'10412.3
2014-Oct-23 00:05N 35°58' W 005°39'611.9
2014-Oct-22 23:33N 35°60' W 005°31'10 9.9
2014-Oct-22 22:29N 36°08' W 005°23'1 0.8
2014-Oct-22 21:32N 36°08' W 005°22'0 0.1
2014-Oct-22 20:14N 36°08' W 005°22'0 0.3
2014-Oct-22 19:32N 36°08' W 005°22'0 0.2
2014-Oct-22 18:32N 36°08' W 005°22'0 0.0
2014-Oct-22 17:32N 36°08' W 005°22'0 0.1
2014-Oct-22 16:26N 36°08' W 005°22'0 0.1
2014-Oct-22 15:32N 36°08' W 005°22'0 0.0
2014-Oct-22 14:29N 36°08' W 005°22'4 4.0
2014-Oct-22 13:33N 36°05' W 005°21'3 3.5
2014-Oct-22 12:33N 36°06' W 005°17'0 0.3
2014-Oct-22 11:31N 36°06' W 005°17'3 3.4
2014-Oct-22 10:30N 36°09' W 005°14'1 1.1
2014-Oct-22 09:33N 36°08' W 005°13'1 1.2
2014-Oct-22 08:33N 36°09' W 005°12'1 0.8
2014-Oct-22 07:33N 36°09' W 005°12'1 1.3
2014-Oct-22 06:33N 36°08' W 005°11'20112.5
2014-Oct-21 14:31N 36°41' W 001°04'1212.3
2014-Oct-21 13:33N 36°44' W 000°50'1212.4
2014-Oct-21 12:33N 36°47' W 000°35'  

Dump ship's entire track history